首页
METAR-TAF:

METAR-TAF

机场 :

圣塞瓦斯蒂安机场

圣塞瓦斯蒂安, 西班牙

纬度: 43-21N, 经度: 001-48W, 海拔: 5米

当前天气观测

该预报发布于36分钟前的01:30 UTC
风速3节,风向,在之间变化
温度 13°C
湿度 94%
气压 1023 hPa
能见度10公里或以上

METAR: LESO 070130Z AUTO 08003KT 360V170 9999 VV001 13/12 Q1023

时间: 04:06 (02:06 UTC)

预报

该预报发布于3小时和6分钟前的23:00 UTC
预报有效从07日的 00点(UTC)到 07日的 24点(UTC)
风速4节,风向多变
能见度10公里或以上
散云层高于1000英尺
多云层高于4500英尺
几率 40% :
短暂存在
从 07日的 00点(UTC)到 07日的 03点(UTC)
能見度: 3000
多云层高于1000英尺
小雨, 轻雾

TAF: LESO 062300Z 0700/0724 VRB04KT 9999 SCT010 BKN045 TX17/0715Z TN11/0706Z PROB40 TEMPO 0700/0703 3000 -RA BR BKN010

超过4000个机场的气象观测和天气预报(METAR&TAF报告)。

可查询的气象台以黄色和红色小点在地图上表示。

将鼠标移到小点上方,可查看气象台名称。

然后点击查看天气观测和预报。

如需切换地图:点击带黑十字的绿色按钮放大地图;点击带横线的绿色按钮缩小地图;或者点击绿色箭头查看邻近地区的地图。


METAR-TAF: